createdAt,value
2018-03-07T00:00:39.575Z,24.36
2018-03-07T00:03:06.141Z,24.36
2018-03-07T00:05:32.709Z,24.36
2018-03-07T00:07:59.338Z,24.34
2018-03-07T00:10:25.950Z,24.32
2018-03-07T00:12:52.504Z,24.40
2018-03-07T00:15:19.113Z,24.41
2018-03-07T00:17:45.719Z,24.38
2018-03-07T00:20:12.343Z,24.46
2018-03-07T00:22:38.908Z,24.40
2018-03-07T00:25:05.466Z,24.37
2018-03-07T00:27:32.029Z,24.41
2018-03-07T00:29:58.618Z,24.41
2018-03-07T00:32:25.229Z,24.33
2018-03-07T00:34:51.823Z,24.33
2018-03-07T00:37:18.404Z,24.38
2018-03-07T00:39:44.971Z,24.37
2018-03-07T00:42:11.530Z,24.37
2018-03-07T00:44:38.096Z,24.34
2018-03-07T00:47:04.672Z,24.36
2018-03-07T00:49:31.240Z,24.32
2018-03-07T00:51:57.797Z,24.34
2018-03-07T00:54:24.405Z,24.28
2018-03-07T00:56:50.958Z,24.27
2018-03-07T00:59:17.563Z,24.36
2018-03-07T01:01:44.130Z,24.32
2018-03-07T01:04:10.727Z,24.37
2018-03-07T01:06:37.290Z,24.31
2018-03-07T01:09:03.863Z,24.29
2018-03-07T01:11:30.431Z,24.31
2018-03-07T01:13:56.995Z,24.33
2018-03-07T01:16:23.634Z,24.30
2018-03-07T01:18:50.258Z,24.30
2018-03-07T01:21:16.857Z,24.32
2018-03-07T01:23:43.417Z,24.28
2018-03-07T01:26:09.990Z,24.26
2018-03-07T01:28:36.557Z,24.30
2018-03-07T01:31:03.133Z,24.25
2018-03-07T01:33:29.712Z,24.23
2018-03-07T01:35:56.420Z,24.25
2018-03-07T01:38:23.017Z,24.28
2018-03-07T01:40:49.623Z,24.28
2018-03-07T01:43:16.185Z,24.25
2018-03-07T01:45:42.754Z,24.26
2018-03-07T01:48:09.362Z,24.25
2018-03-07T01:50:35.933Z,24.22
2018-03-07T01:53:02.499Z,24.23
2018-03-07T01:55:29.121Z,24.19
2018-03-07T01:57:55.680Z,24.18
2018-03-07T02:00:22.244Z,24.23
2018-03-07T02:02:48.808Z,24.20
2018-03-07T02:05:15.415Z,24.19
2018-03-07T02:07:42.017Z,24.17
2018-03-07T02:10:08.634Z,24.19
2018-03-07T02:12:35.211Z,24.15
2018-03-07T02:15:04.307Z,24.09
2018-03-07T02:17:30.886Z,24.16
2018-03-07T02:19:57.454Z,24.12
2018-03-07T02:22:24.047Z,24.11
2018-03-07T02:24:50.614Z,24.07
2018-03-07T02:27:17.178Z,24.09
2018-03-07T02:29:43.741Z,24.09
2018-03-07T02:32:10.313Z,24.06
2018-03-07T02:34:36.865Z,24.02
2018-03-07T02:37:03.428Z,24.11
2018-03-07T02:39:30.027Z,24.01
2018-03-07T02:41:56.656Z,23.99
2018-03-07T02:44:23.213Z,24.00
2018-03-07T02:46:49.773Z,24.02
2018-03-07T02:49:16.342Z,23.97
2018-03-07T02:51:42.909Z,23.97
2018-03-07T02:54:09.733Z,23.97
2018-03-07T02:56:36.301Z,23.97
2018-03-07T02:59:02.859Z,23.97
2018-03-07T03:01:29.425Z,23.94
2018-03-07T03:03:55.992Z,23.92
2018-03-07T03:06:22.557Z,23.93
2018-03-07T03:08:49.121Z,23.93
2018-03-07T03:11:15.681Z,23.87
2018-03-07T03:13:42.297Z,23.94
2018-03-07T03:16:08.868Z,23.91
2018-03-07T03:18:35.468Z,23.88
2018-03-07T03:21:02.038Z,23.88
2018-03-07T03:23:28.598Z,23.86
2018-03-07T03:25:55.170Z,23.84
2018-03-07T03:28:21.732Z,23.85
2018-03-07T03:30:48.309Z,23.80
2018-03-07T03:33:14.863Z,23.85
2018-03-07T03:35:41.420Z,23.82
2018-03-07T03:38:08.027Z,23.82
2018-03-07T03:40:34.633Z,23.82
2018-03-07T03:43:01.215Z,23.79
2018-03-07T03:45:27.783Z,23.76
2018-03-07T03:47:54.343Z,23.75
2018-03-07T03:50:20.902Z,23.75
2018-03-07T03:52:47.481Z,23.72
2018-03-07T03:55:14.041Z,23.76
2018-03-07T03:57:40.652Z,23.71
2018-03-07T04:00:07.229Z,23.70
2018-03-07T04:02:33.803Z,23.72
2018-03-07T04:05:00.368Z,23.69
2018-03-07T04:07:26.929Z,23.65
2018-03-07T04:09:53.553Z,23.64
2018-03-07T04:12:20.143Z,23.62
2018-03-07T04:14:46.709Z,23.59
2018-03-07T04:17:13.283Z,23.61
2018-03-07T04:19:39.861Z,23.59
2018-03-07T04:22:06.418Z,23.59
2018-03-07T04:24:32.981Z,23.61
2018-03-07T04:26:59.544Z,23.56
2018-03-07T04:29:26.107Z,23.51
2018-03-07T04:31:52.685Z,23.55
2018-03-07T04:34:19.287Z,23.55
2018-03-07T04:36:45.885Z,23.52
2018-03-07T04:39:12.445Z,23.51
2018-03-07T04:41:39.045Z,23.49
2018-03-07T04:44:05.616Z,23.49
2018-03-07T04:46:32.230Z,23.45
2018-03-07T04:48:58.828Z,23.43
2018-03-07T04:51:25.401Z,23.46
2018-03-07T04:53:52.010Z,23.41
2018-03-07T04:56:18.582Z,23.38
2018-03-07T04:58:45.305Z,23.37
2018-03-07T05:01:11.920Z,23.35
2018-03-07T05:03:38.565Z,23.37
2018-03-07T05:06:05.130Z,23.28
2018-03-07T05:08:31.694Z,23.36
2018-03-07T05:10:58.267Z,23.26
2018-03-07T05:13:24.836Z,23.22
2018-03-07T05:15:51.407Z,23.15
2018-03-07T05:18:18.029Z,23.16
2018-03-07T05:20:45.054Z,23.39
2018-03-07T05:23:14.647Z,23.28
2018-03-07T05:25:41.211Z,23.30
2018-03-07T05:28:07.784Z,23.25
2018-03-07T05:30:34.341Z,23.20
2018-03-07T05:33:00.940Z,23.15
2018-03-07T05:35:27.496Z,23.07
2018-03-07T05:37:54.102Z,23.49
2018-03-07T05:40:20.869Z,23.94
2018-03-07T05:42:47.384Z,23.50
2018-03-07T05:45:13.947Z,23.65
2018-03-07T05:47:40.507Z,23.83
2018-03-07T05:50:07.152Z,22.35
2018-03-07T05:52:33.764Z,22.37
2018-03-07T05:55:00.338Z,22.35
2018-03-07T05:57:26.926Z,22.17
2018-03-07T05:59:53.601Z,21.78
2018-03-07T06:02:20.232Z,21.75
2018-03-07T06:04:46.799Z,21.56
2018-03-07T06:07:13.459Z,21.48
2018-03-07T06:09:40.167Z,21.77
2018-03-07T06:12:06.869Z,21.70
2018-03-07T06:14:33.851Z,21.76
2018-03-07T06:17:00.442Z,21.85
2018-03-07T06:19:27.289Z,21.91
2018-03-07T06:21:53.938Z,21.88
2018-03-07T06:24:20.559Z,21.81
2018-03-07T06:26:47.226Z,21.91
2018-03-07T06:29:13.909Z,21.77
2018-03-07T06:31:40.465Z,21.94
2018-03-07T06:34:07.155Z,21.96
2018-03-07T06:36:33.982Z,22.10
2018-03-07T06:39:00.570Z,21.68
2018-03-07T06:41:27.177Z,21.88
2018-03-07T06:43:53.779Z,21.70
2018-03-07T06:46:20.412Z,21.72
2018-03-07T06:48:46.997Z,21.71
2018-03-07T06:51:13.653Z,21.58
2018-03-07T06:53:40.224Z,22.19
2018-03-07T06:56:06.837Z,21.86
2018-03-07T06:58:33.464Z,22.49
2018-03-07T07:01:00.081Z,22.08
2018-03-07T07:03:26.676Z,21.88
2018-03-07T07:05:53.328Z,22.01
2018-03-07T07:08:19.987Z,21.90
2018-03-07T07:10:52.096Z,21.77
2018-03-07T07:13:18.667Z,21.93
2018-03-07T07:15:45.321Z,21.83
2018-03-07T07:18:11.900Z,22.00
2018-03-07T07:20:38.499Z,22.00
2018-03-07T07:23:05.163Z,21.91
2018-03-07T07:25:31.775Z,21.97
2018-03-07T07:27:58.401Z,21.87
2018-03-07T07:30:24.970Z,21.89
2018-03-07T07:32:51.586Z,21.72
2018-03-07T07:35:18.194Z,21.41
2018-03-07T07:37:44.791Z,21.92
2018-03-07T07:40:11.450Z,21.54
2018-03-07T07:42:38.017Z,21.79
2018-03-07T07:45:04.784Z,21.95
2018-03-07T07:47:31.401Z,22.02
2018-03-07T07:49:57.969Z,21.59
2018-03-07T07:52:24.594Z,21.67
2018-03-07T07:54:51.241Z,21.85
2018-03-07T07:57:17.862Z,21.67
2018-03-07T07:59:44.468Z,21.86
2018-03-07T08:02:11.048Z,21.79
2018-03-07T08:04:37.651Z,21.81
2018-03-07T08:07:04.270Z,21.99
2018-03-07T08:09:30.872Z,21.89
2018-03-07T08:11:57.437Z,21.81
2018-03-07T08:14:24.152Z,21.86
2018-03-07T08:16:50.738Z,21.91
2018-03-07T08:19:17.314Z,21.91
2018-03-07T08:21:43.984Z,21.97
2018-03-07T08:24:10.552Z,21.95
2018-03-07T08:26:37.113Z,22.20
2018-03-07T08:29:03.682Z,22.17
2018-03-07T08:31:30.386Z,21.83
2018-03-07T08:33:57.093Z,21.96
2018-03-07T08:36:23.667Z,22.08
2018-03-07T08:38:50.231Z,21.92
2018-03-07T08:41:16.843Z,21.79
2018-03-07T08:43:43.416Z,21.99
2018-03-07T08:46:10.070Z,21.68
2018-03-07T08:48:36.669Z,21.69
2018-03-07T08:51:03.334Z,21.88
2018-03-07T08:53:29.941Z,21.94
2018-03-07T08:55:56.492Z,21.88
2018-03-07T08:58:23.100Z,21.53
2018-03-07T09:00:49.663Z,21.42
2018-03-07T09:03:16.241Z,21.34
2018-03-07T09:05:42.824Z,21.68
2018-03-07T09:08:09.506Z,21.73
2018-03-07T09:10:36.089Z,21.66
2018-03-07T09:13:02.704Z,21.60
2018-03-07T09:15:29.361Z,21.07
2018-03-07T09:17:55.943Z,20.82
2018-03-07T09:20:22.534Z,21.36
2018-03-07T09:22:49.169Z,21.18
2018-03-07T09:25:15.738Z,21.25
2018-03-07T09:27:42.302Z,21.20
2018-03-07T09:30:08.886Z,21.16
2018-03-07T09:32:35.516Z,21.28
2018-03-07T09:35:02.170Z,21.24
2018-03-07T09:37:28.782Z,21.24
2018-03-07T09:39:55.399Z,21.46
2018-03-07T09:42:21.988Z,21.59
2018-03-07T09:44:48.552Z,21.64
2018-03-07T09:47:15.118Z,21.53
2018-03-07T09:49:41.818Z,21.56
2018-03-07T09:52:08.393Z,21.52
2018-03-07T09:54:34.965Z,21.20
2018-03-07T09:57:01.565Z,21.26
2018-03-07T09:59:28.142Z,21.30
2018-03-07T10:01:54.721Z,21.06
2018-03-07T10:04:21.413Z,20.91
2018-03-07T10:06:48.034Z,20.68
2018-03-07T10:09:14.633Z,20.77
2018-03-07T10:11:41.198Z,20.64
2018-03-07T10:14:07.828Z,20.65
2018-03-07T10:16:34.414Z,20.53
2018-03-07T10:19:00.986Z,20.45
2018-03-07T10:21:27.623Z,20.30
2018-03-07T10:23:54.195Z,20.32
2018-03-07T10:26:20.772Z,20.65
2018-03-07T10:28:47.352Z,20.10
2018-03-07T10:31:13.938Z,19.67
2018-03-07T10:33:40.531Z,19.35
2018-03-07T10:36:07.299Z,19.86
2018-03-07T10:38:33.858Z,19.82
2018-03-07T10:41:00.442Z,19.48
2018-03-07T10:43:26.998Z,19.06
2018-03-07T10:45:53.592Z,18.94
2018-03-07T10:48:20.393Z,19.06
2018-03-07T10:50:46.980Z,19.32
2018-03-07T10:53:13.555Z,19.54
2018-03-07T10:55:40.286Z,19.68
2018-03-07T10:58:06.865Z,19.90
2018-03-07T11:00:33.453Z,20.00
2018-03-07T11:03:00.052Z,19.59
2018-03-07T11:05:26.680Z,19.59
2018-03-07T11:07:53.261Z,19.55
2018-03-07T11:10:19.895Z,19.43
2018-03-07T11:12:46.488Z,19.49
2018-03-07T11:15:13.054Z,19.68
2018-03-07T11:17:39.629Z,19.78
2018-03-07T11:20:06.242Z,19.78
2018-03-07T11:22:32.834Z,19.86
2018-03-07T11:24:59.429Z,19.99
2018-03-07T11:27:26.084Z,20.07
2018-03-07T11:29:52.672Z,20.46
2018-03-07T11:32:19.279Z,20.46
2018-03-07T11:34:45.868Z,20.53
2018-03-07T11:37:12.473Z,20.59
2018-03-07T11:39:39.060Z,20.43
2018-03-07T11:42:05.637Z,20.41
2018-03-07T11:44:32.211Z,20.59
2018-03-07T11:46:58.795Z,20.63
2018-03-07T11:49:25.386Z,20.62
2018-03-07T11:51:52.089Z,20.76
2018-03-07T11:54:18.683Z,20.96
2018-03-07T11:56:45.377Z,21.14
2018-03-07T11:59:12.020Z,21.34
2018-03-07T12:01:38.631Z,21.00
2018-03-07T12:04:05.292Z,21.44
2018-03-07T12:06:31.920Z,22.72
2018-03-07T12:08:58.642Z,22.24
2018-03-07T12:11:25.260Z,22.09
2018-03-07T12:13:51.862Z,22.25
2018-03-07T12:16:18.526Z,21.59
2018-03-07T12:18:45.225Z,21.73
2018-03-07T12:21:12.529Z,22.41
2018-03-07T12:23:39.260Z,21.96
2018-03-07T12:26:05.884Z,23.26
2018-03-07T12:28:32.516Z,22.11
2018-03-07T12:30:59.130Z,21.81
2018-03-07T12:33:25.742Z,22.28
2018-03-07T12:35:52.317Z,22.93
2018-03-07T12:38:18.996Z,23.05
2018-03-07T12:40:45.553Z,22.79
2018-03-07T12:43:12.217Z,22.77
2018-03-07T12:45:38.830Z,22.89
2018-03-07T12:48:06.304Z,23.18
2018-03-07T12:50:32.924Z,23.02
2018-03-07T12:52:59.516Z,22.54
2018-03-07T12:55:26.237Z,22.55
2018-03-07T12:57:52.837Z,22.50
2018-03-07T13:00:19.593Z,22.58
2018-03-07T13:02:46.186Z,22.68
2018-03-07T13:05:12.806Z,22.74
2018-03-07T13:07:39.375Z,22.57
2018-03-07T13:10:05.985Z,23.59
2018-03-07T13:12:32.547Z,22.82
2018-03-07T13:14:59.176Z,22.77
2018-03-07T13:17:25.817Z,23.11
2018-03-07T13:19:52.394Z,23.05
2018-03-07T13:22:18.986Z,23.39
2018-03-07T13:24:45.613Z,22.37
2018-03-07T13:27:12.165Z,22.89
2018-03-07T13:29:38.741Z,23.09
2018-03-07T13:32:05.785Z,23.29
2018-03-07T13:34:32.354Z,22.87
2018-03-07T13:36:59.116Z,23.27
2018-03-07T13:39:25.696Z,24.08
2018-03-07T13:41:52.238Z,23.16
2018-03-07T13:44:18.827Z,23.01
2018-03-07T13:46:45.445Z,23.51
2018-03-07T13:49:12.047Z,23.52
2018-03-07T13:51:38.634Z,23.74
2018-03-07T13:54:05.283Z,23.33
2018-03-07T13:56:31.898Z,22.84
2018-03-07T13:58:58.516Z,23.39
2018-03-07T14:01:25.091Z,24.08
2018-03-07T14:03:51.695Z,24.58
2018-03-07T14:06:18.270Z,24.03
2018-03-07T14:08:44.912Z,22.53
2018-03-07T14:11:11.742Z,22.75
2018-03-07T14:13:38.392Z,22.41
2018-03-07T14:16:07.445Z,22.73
2018-03-07T14:18:34.079Z,22.99
2018-03-07T14:21:00.684Z,22.43
2018-03-07T14:23:27.407Z,22.21
2018-03-07T14:25:53.986Z,21.65
2018-03-07T14:28:20.572Z,21.61
2018-03-07T14:30:47.143Z,21.17
2018-03-07T14:33:13.792Z,21.93
2018-03-07T14:35:40.402Z,21.94
2018-03-07T14:38:09.644Z,21.80
2018-03-07T14:40:36.219Z,22.01
2018-03-07T14:43:02.793Z,21.97
2018-03-07T14:45:29.427Z,21.78
2018-03-07T14:47:56.022Z,22.14
2018-03-07T14:50:22.651Z,22.24
2018-03-07T14:52:49.251Z,22.26
2018-03-07T14:55:15.813Z,22.35
2018-03-07T14:57:42.378Z,22.41
2018-03-07T15:00:08.982Z,22.56
2018-03-07T15:02:35.644Z,22.63
2018-03-07T15:05:02.209Z,21.98
2018-03-07T15:07:30.941Z,21.98
2018-03-07T15:09:57.529Z,22.79
2018-03-07T15:12:24.108Z,22.16
2018-03-07T15:14:50.706Z,22.74
2018-03-07T15:17:17.270Z,22.63
2018-03-07T15:19:43.867Z,22.75
2018-03-07T15:22:10.475Z,22.49
2018-03-07T15:24:37.044Z,22.29
2018-03-07T15:27:03.618Z,22.31
2018-03-07T15:29:30.201Z,22.39
2018-03-07T15:31:56.770Z,22.88
2018-03-07T15:34:23.344Z,22.98
2018-03-07T15:36:49.941Z,23.36
2018-03-07T15:39:16.549Z,23.22
2018-03-07T15:41:43.115Z,23.75
2018-03-07T15:44:09.672Z,23.41
2018-03-07T15:46:36.252Z,23.85
2018-03-07T15:49:02.941Z,23.59
2018-03-07T15:51:29.524Z,24.46
2018-03-07T15:53:56.125Z,24.46
2018-03-07T15:56:22.686Z,23.68
2018-03-07T15:58:49.267Z,23.96
2018-03-07T16:01:15.827Z,23.82
2018-03-07T16:03:42.430Z,23.86
2018-03-07T16:06:08.997Z,23.85
2018-03-07T16:08:35.563Z,23.87
2018-03-07T16:11:02.153Z,23.74
2018-03-07T16:13:28.854Z,24.33
2018-03-07T16:15:55.445Z,24.05
2018-03-07T16:18:22.010Z,24.01
2018-03-07T16:20:48.609Z,23.97
2018-03-07T16:23:15.180Z,24.03
2018-03-07T16:25:41.763Z,23.98
2018-03-07T16:28:08.344Z,24.10
2018-03-07T16:30:34.919Z,24.43
2018-03-07T16:33:01.520Z,24.40
2018-03-07T16:35:28.167Z,24.46
2018-03-07T16:37:54.793Z,24.53
2018-03-07T16:40:21.362Z,24.57
2018-03-07T16:42:47.994Z,24.59
2018-03-07T16:45:14.618Z,24.61
2018-03-07T16:47:41.191Z,24.71
2018-03-07T16:50:07.761Z,24.63
2018-03-07T16:52:34.320Z,24.68
2018-03-07T16:55:00.899Z,24.73
2018-03-07T16:57:27.464Z,24.73
2018-03-07T16:59:54.034Z,24.66
2018-03-07T17:02:20.608Z,24.65
2018-03-07T17:04:47.169Z,24.59
2018-03-07T17:07:13.806Z,24.58
2018-03-07T17:09:40.389Z,24.69
2018-03-07T17:12:06.961Z,24.60
2018-03-07T17:14:36.152Z,24.54
2018-03-07T17:17:02.695Z,24.48
2018-03-07T17:19:29.327Z,24.34
2018-03-07T17:21:55.909Z,24.56
2018-03-07T17:24:22.509Z,24.44
2018-03-07T17:26:49.124Z,24.54
2018-03-07T17:29:15.681Z,24.46
2018-03-07T17:31:42.301Z,24.54
2018-03-07T17:34:08.863Z,24.52
2018-03-07T17:36:35.471Z,24.65
2018-03-07T17:39:02.026Z,24.63
2018-03-07T17:41:28.668Z,24.57
2018-03-07T17:43:55.234Z,24.54
2018-03-07T17:46:21.840Z,24.48
2018-03-07T17:48:48.440Z,24.38
2018-03-07T17:51:15.096Z,24.45
2018-03-07T17:53:41.663Z,24.46
2018-03-07T17:56:08.300Z,24.42
2018-03-07T17:58:34.994Z,24.59
2018-03-07T18:01:01.562Z,24.53
2018-03-07T18:03:28.172Z,24.46
2018-03-07T18:05:54.774Z,24.47
2018-03-07T18:08:21.408Z,24.51
2018-03-07T18:10:48.025Z,24.45
2018-03-07T18:13:14.554Z,24.42
2018-03-07T18:15:41.119Z,24.46
2018-03-07T18:18:07.741Z,24.41
2018-03-07T18:20:34.364Z,24.40
2018-03-07T18:23:00.924Z,24.40
2018-03-07T18:25:27.487Z,24.39
2018-03-07T18:27:54.129Z,24.40
2018-03-07T18:30:20.778Z,24.32
2018-03-07T18:32:47.340Z,24.41
2018-03-07T18:35:13.907Z,24.36
2018-03-07T18:37:40.496Z,24.42
2018-03-07T18:40:07.058Z,24.36
2018-03-07T18:42:33.709Z,24.49
2018-03-07T18:45:00.245Z,24.41
2018-03-07T18:47:26.814Z,24.36
2018-03-07T18:49:53.385Z,24.36
2018-03-07T18:52:20.009Z,24.46
2018-03-07T18:54:46.613Z,24.38
2018-03-07T18:57:13.223Z,24.39
2018-03-07T18:59:39.837Z,24.44
2018-03-07T19:02:06.415Z,24.38
2018-03-07T19:05:00.851Z,24.41
2018-03-07T19:07:27.433Z,24.36
2018-03-07T19:09:54.107Z,24.39
2018-03-07T19:12:20.706Z,24.41
2018-03-07T19:14:47.270Z,24.36
2018-03-07T19:17:13.869Z,24.37
2018-03-07T19:19:40.443Z,24.34
2018-03-07T19:22:07.053Z,24.40
2018-03-07T19:24:33.635Z,24.39
2018-03-07T19:27:00.241Z,24.35
2018-03-07T19:29:26.845Z,24.38
2018-03-07T19:31:53.802Z,24.44
2018-03-07T19:34:20.374Z,24.43
2018-03-07T19:36:46.976Z,24.47
2018-03-07T19:39:13.587Z,24.38
2018-03-07T19:41:40.211Z,24.43
2018-03-07T19:44:06.769Z,24.44
2018-03-07T19:46:33.330Z,24.44
2018-03-07T19:48:59.911Z,24.43
2018-03-07T19:51:26.559Z,24.43
2018-03-07T19:53:53.193Z,24.47
2018-03-07T19:56:19.760Z,24.41
2018-03-07T19:58:46.328Z,24.48
2018-03-07T20:01:12.972Z,24.45
2018-03-07T20:03:39.539Z,24.43
2018-03-07T20:06:06.105Z,24.41
2018-03-07T20:08:32.676Z,24.42
2018-03-07T20:10:59.347Z,24.48
2018-03-07T20:13:25.913Z,24.43
2018-03-07T20:15:52.477Z,24.47
2018-03-07T20:18:19.048Z,24.48
2018-03-07T20:20:45.626Z,24.49
2018-03-07T20:23:12.225Z,24.45
2018-03-07T20:25:38.809Z,24.46
2018-03-07T20:28:05.421Z,24.46
2018-03-07T20:30:31.995Z,24.44
2018-03-07T20:32:58.569Z,24.44
2018-03-07T20:35:25.174Z,24.47
2018-03-07T20:37:51.740Z,24.44
2018-03-07T20:40:18.300Z,24.48
2018-03-07T20:42:44.909Z,24.47
2018-03-07T20:45:11.569Z,24.45
2018-03-07T20:47:38.139Z,24.46
2018-03-07T20:50:04.706Z,24.50
2018-03-07T20:52:31.270Z,24.46
2018-03-07T20:54:57.885Z,24.50
2018-03-07T20:57:24.498Z,24.47
2018-03-07T20:59:51.102Z,24.52
2018-03-07T21:02:17.719Z,24.52
2018-03-07T21:04:44.296Z,24.53
2018-03-07T21:07:10.903Z,24.52
2018-03-07T21:09:37.553Z,24.50
2018-03-07T21:12:04.112Z,24.50
2018-03-07T21:14:30.691Z,24.52
2018-03-07T21:16:57.276Z,24.50
2018-03-07T21:19:23.885Z,24.54
2018-03-07T21:21:50.481Z,24.57
2018-03-07T21:24:17.133Z,24.56
2018-03-07T21:26:43.746Z,24.53
2018-03-07T21:29:10.434Z,24.58
2018-03-07T21:31:37.048Z,24.52
2018-03-07T21:34:03.662Z,24.52
2018-03-07T21:36:30.233Z,24.53
2018-03-07T21:38:56.795Z,24.61
2018-03-07T21:41:23.537Z,24.57
2018-03-07T21:43:50.113Z,24.56
2018-03-07T21:46:16.684Z,24.60
2018-03-07T21:48:43.339Z,24.55
2018-03-07T21:51:09.956Z,24.64
2018-03-07T21:53:36.562Z,24.65
2018-03-07T21:56:03.188Z,24.61
2018-03-07T21:58:29.770Z,24.60
2018-03-07T22:00:56.376Z,24.56
2018-03-07T22:03:22.941Z,24.61
2018-03-07T22:05:49.623Z,24.59
2018-03-07T22:08:16.200Z,24.59
2018-03-07T22:10:42.766Z,24.55
2018-03-07T22:13:09.377Z,24.58
2018-03-07T22:15:35.962Z,24.59
2018-03-07T22:18:02.573Z,24.56
2018-03-07T22:20:29.169Z,24.57
2018-03-07T22:22:55.784Z,24.56
2018-03-07T22:25:22.369Z,24.57
2018-03-07T22:27:48.938Z,24.48
2018-03-07T22:30:15.541Z,24.51
2018-03-07T22:32:42.170Z,24.54
2018-03-07T22:35:08.744Z,24.49
2018-03-07T22:37:35.382Z,24.50
2018-03-07T22:40:01.953Z,24.50
2018-03-07T22:44:55.159Z,24.43
2018-03-07T22:47:21.719Z,24.48
2018-03-07T22:49:48.389Z,24.45
2018-03-07T22:52:14.962Z,24.47
2018-03-07T22:54:41.593Z,24.43
2018-03-07T22:57:08.228Z,24.44
2018-03-07T22:59:34.866Z,24.47
2018-03-07T23:02:01.481Z,24.45
2018-03-07T23:04:28.056Z,24.46
2018-03-07T23:06:54.620Z,24.45
2018-03-07T23:09:21.179Z,24.47
2018-03-07T23:11:47.790Z,24.49
2018-03-07T23:14:14.443Z,24.48
2018-03-07T23:16:41.084Z,24.50
2018-03-07T23:19:07.650Z,24.50
2018-03-07T23:21:34.215Z,24.52
2018-03-07T23:24:00.892Z,24.53
2018-03-07T23:26:27.510Z,24.58
2018-03-07T23:28:54.126Z,24.50
2018-03-07T23:31:20.695Z,24.56
2018-03-07T23:33:47.306Z,24.58
2018-03-07T23:36:13.908Z,24.59
2018-03-07T23:38:40.483Z,24.60
2018-03-07T23:41:07.097Z,24.60
2018-03-07T23:43:33.658Z,24.62
2018-03-07T23:46:00.277Z,24.61
2018-03-07T23:48:26.837Z,24.62
2018-03-07T23:50:53.426Z,24.63
2018-03-07T23:53:20.007Z,24.64
2018-03-07T23:55:46.592Z,24.66
2018-03-07T23:58:13.154Z,24.65
